Akogare — JPDL — position and weather

sailwx.info

Track history (hours):
 
Tides and Currents Weather Stations Pressure Air Temp Water Temp Dewpoint Dewpoint Depression Visibility Wind Speed Wind Dir Waves Ship Positions

Akogare (Japan)

Ship's website: http://www.akogare.or.jp/eng/top.html

Last reported at 2017-Sep-22 01:55 UTC. Time now 2017-Sep-22 15:34 UTC.
Position N 35°23' E 139°40'.

Length 52 m; draft 4.5 m.

Type: Sailing vessel. MMSI: 431005001.

Date/timePositionNaut miles runAvg speedWind from/ knotsBaromVisibWave heightAir tempDewpointWater temp
2017-Sep-22 01:55N 35°23' E 139°40'0 0.0
2017-Sep-22 01:28N 35°23' E 139°40'0 0.0
2017-Sep-22 00:58N 35°23' E 139°40'0 0.0
2017-Sep-22 00:28N 35°23' E 139°40'0 0.0
2017-Sep-21 23:58N 35°23' E 139°40'0 0.0
2017-Sep-21 23:28N 35°23' E 139°40'0 0.0
2017-Sep-21 22:58N 35°23' E 139°40'0 0.1
2017-Sep-21 22:25N 35°23' E 139°40'0 0.0
2017-Sep-21 21:58N 35°23' E 139°40'0 0.0
2017-Sep-21 21:28N 35°23' E 139°40'0 0.1
2017-Sep-21 20:58N 35°23' E 139°40'0 0.0
2017-Sep-21 20:25N 35°23' E 139°40'0 0.0
2017-Sep-21 19:58N 35°23' E 139°40'0 0.0
2017-Sep-21 19:28N 35°23' E 139°40'0 0.0
2017-Sep-21 18:58N 35°23' E 139°40'0 0.0
2017-Sep-21 18:28N 35°23' E 139°40'0 0.0
2017-Sep-21 17:58N 35°23' E 139°40'0 0.0
2017-Sep-21 17:25N 35°23' E 139°40'0 0.0
2017-Sep-21 16:58N 35°23' E 139°40'0 0.0
2017-Sep-21 16:28N 35°23' E 139°40'0 0.0
2017-Sep-21 15:58N 35°23' E 139°40'0 0.0
2017-Sep-21 15:28N 35°23' E 139°40'0 0.0
2017-Sep-21 14:58N 35°23' E 139°40'0 0.0
2017-Sep-21 14:28N 35°23' E 139°40'0 0.0
2017-Sep-21 13:58N 35°23' E 139°40'0 0.0
2017-Sep-21 13:28N 35°23' E 139°40'0 0.0
2017-Sep-21 12:58N 35°23' E 139°40'0 0.0
2017-Sep-21 12:28N 35°23' E 139°40'0 0.0
2017-Sep-21 11:58N 35°23' E 139°40'0 0.0
2017-Sep-21 11:28N 35°23' E 139°40'0 0.0
2017-Sep-21 10:58N 35°23' E 139°40'0 0.0
2017-Sep-21 10:28N 35°23' E 139°40'0 0.0
2017-Sep-21 09:58N 35°23' E 139°40'0 0.1
2017-Sep-21 09:28N 35°23' E 139°40'0 0.0
2017-Sep-21 08:58N 35°23' E 139°40'0 0.0
2017-Sep-21 08:28N 35°23' E 139°40'0 0.0
2017-Sep-21 07:58N 35°23' E 139°40'0 0.0
2017-Sep-21 07:28N 35°23' E 139°40'0 0.1
2017-Sep-21 06:58N 35°23' E 139°40'0 0.0
2017-Sep-21 06:28N 35°23' E 139°40'0 0.0
2017-Sep-21 05:58N 35°23' E 139°40'0 0.0
2017-Sep-21 05:30N 35°23' E 139°40'1 1.9
2017-Sep-21 05:00N 35°23' E 139°41'2 3.8
2017-Sep-21 04:30N 35°22' E 139°43'4 7.5
2017-Sep-21 04:00N 35°19' E 139°44'4 7.2
2017-Sep-21 03:30N 35°16' E 139°46'3 6.5
2017-Sep-21 03:00N 35°13' E 139°47'3 6.2
2017-Sep-21 02:30N 35°09' E 139°46'3 6.2
2017-Sep-21 02:00N 35°07' E 139°44'3 6.1
2017-Sep-21 01:30N 35°05' E 139°42'3 6.2
2017-Sep-21 01:00N 35°02' E 139°40'3 6.4
2017-Sep-21 00:30N 34°59' E 139°38'3 7.0
2017-Sep-21 00:00N 34°58' E 139°34'  
2017-Sep-16 09:33N 35°03' E 138°34'  
2017-Sep-13 09:43N 34°48' E 139°07'2 6.5
2017-Sep-13 09:25N 34°50' E 139°08'20 5.8
2017-Sep-13 06:00N 35°03' E 139°26'4 5.9
2017-Sep-13 05:24N 35°04' E 139°30'3 6.1
2017-Sep-13 04:59N 35°05' E 139°33'3 6.6
2017-Sep-13 04:30N 35°06' E 139°37'3 6.8
2017-Sep-13 04:00N 35°07' E 139°41'3 5.4
2017-Sep-13 03:30N 35°08' E 139°43'3 6.3
2017-Sep-13 03:00N 35°11' E 139°45'4 7.2
2017-Sep-13 02:30N 35°14' E 139°46'3 6.4
2017-Sep-13 01:59N 35°17' E 139°44'3 6.7
2017-Sep-13 01:30N 35°20' E 139°42'2 4.3
2017-Sep-13 01:00N 35°19' E 139°40'0 0.1
2017-Sep-13 00:29N 35°19' E 139°40'0 0.0
2017-Sep-12 23:53N 35°19' E 139°40'0 0.0
2017-Sep-12 23:29N 35°19' E 139°40'0 0.0
2017-Sep-12 22:41N 35°19' E 139°40'0 0.0
2017-Sep-12 22:14N 35°19' E 139°40'0 0.0
2017-Sep-12 21:59N 35°19' E 139°40'0 0.0
2017-Sep-12 21:26N 35°19' E 139°40'0 0.0
2017-Sep-12 20:59N 35°19' E 139°40'0 0.0
2017-Sep-12 20:26N 35°19' E 139°40'0 0.0
2017-Sep-12 19:56N 35°19' E 139°40'0 0.0
2017-Sep-12 19:26N 35°19' E 139°40'0 0.0
2017-Sep-12 18:59N 35°19' E 139°40'0 0.0
2017-Sep-12 18:29N 35°19' E 139°40'0 0.0
2017-Sep-12 17:47N 35°19' E 139°40'0 0.0
2017-Sep-12 17:14N 35°19' E 139°40'0 0.0
2017-Sep-12 16:59N 35°19' E 139°40'0 0.0
2017-Sep-12 16:26N 35°19' E 139°40'0 0.0
2017-Sep-12 15:56N 35°19' E 139°40'0 0.0
2017-Sep-12 15:26N 35°19' E 139°40'0 0.0
2017-Sep-12 14:56N 35°19' E 139°40'0 0.0
2017-Sep-12 14:08N 35°19' E 139°40'0 0.0
2017-Sep-12 13:17N 35°19' E 139°40'0 0.0
2017-Sep-12 12:50N 35°19' E 139°40'0 0.0
2017-Sep-12 12:26N 35°19' E 139°40'0 0.0
2017-Sep-12 11:56N 35°19' E 139°40'0 0.0
2017-Sep-12 11:29N 35°19' E 139°40'0 0.1
2017-Sep-12 10:59N 35°19' E 139°40'0 0.0
2017-Sep-12 10:23N 35°19' E 139°40'0 0.5
2017-Sep-12 10:00N 35°19' E 139°41'2 4.1
2017-Sep-12 09:30N 35°21' E 139°42'3 5.7
2017-Sep-12 09:00N 35°23' E 139°42'3 5.2
2017-Sep-12 08:30N 35°26' E 139°42'3 6.1
2017-Sep-12 08:00N 35°28' E 139°39'0 0.9
2017-Sep-12 07:28N 35°28' E 139°38'0 0.0
2017-Sep-12 06:58N 35°28' E 139°38'0 0.0
2017-Sep-12 06:28N 35°28' E 139°38'0 0.0
2017-Sep-12 05:58N 35°28' E 139°38'0 0.0
2017-Sep-12 05:28N 35°28' E 139°38'0 0.0
2017-Sep-12 04:58N 35°28' E 139°38'0 0.0
2017-Sep-12 04:28N 35°28' E 139°38'0 0.0
2017-Sep-12 03:58N 35°28' E 139°38'0 0.0
2017-Sep-12 03:28N 35°28' E 139°38'0 0.0
2017-Sep-12 02:58N 35°28' E 139°38'0 0.0
2017-Sep-12 02:28N 35°28' E 139°38'0 0.0
2017-Sep-12 01:58N 35°28' E 139°38'  
Track history (hours):
 
Tides and Currents Weather Stations Pressure Air Temp Water Temp Dewpoint Dewpoint Depression Visibility Wind Speed Wind Dir Waves Ship Positions

Akogare (Japan)

Ship's website: http://www.akogare.or.jp/eng/top.html

Last reported at 2017-Sep-22 01:55 UTC. Time now 2017-Sep-22 15:34 UTC.
Position N 35°23' E 139°40'.

Length 52 m; draft 4.5 m.

Type: Sailing vessel. MMSI: 431005001.

Date/timePositionNaut miles runAvg speedWind from/ knotsBaromVisibWave heightAir tempDewpointWater temp
2017-Sep-22 01:55N 35°23' E 139°40'0 0.0
2017-Sep-22 01:28N 35°23' E 139°40'0 0.0
2017-Sep-22 00:58N 35°23' E 139°40'0 0.0
2017-Sep-22 00:28N 35°23' E 139°40'0 0.0
2017-Sep-21 23:58N 35°23' E 139°40'0 0.0
2017-Sep-21 23:28N 35°23' E 139°40'0 0.0
2017-Sep-21 22:58N 35°23' E 139°40'0 0.1
2017-Sep-21 22:25N 35°23' E 139°40'0 0.0
2017-Sep-21 21:58N 35°23' E 139°40'0 0.0
2017-Sep-21 21:28N 35°23' E 139°40'0 0.1
2017-Sep-21 20:58N 35°23' E 139°40'0 0.0
2017-Sep-21 20:25N 35°23' E 139°40'0 0.0
2017-Sep-21 19:58N 35°23' E 139°40'0 0.0
2017-Sep-21 19:28N 35°23' E 139°40'0 0.0
2017-Sep-21 18:58N 35°23' E 139°40'0 0.0
2017-Sep-21 18:28N 35°23' E 139°40'0 0.0
2017-Sep-21 17:58N 35°23' E 139°40'0 0.0
2017-Sep-21 17:25N 35°23' E 139°40'0 0.0
2017-Sep-21 16:58N 35°23' E 139°40'0 0.0
2017-Sep-21 16:28N 35°23' E 139°40'0 0.0
2017-Sep-21 15:58N 35°23' E 139°40'0 0.0
2017-Sep-21 15:28N 35°23' E 139°40'0 0.0
2017-Sep-21 14:58N 35°23' E 139°40'0 0.0
2017-Sep-21 14:28N 35°23' E 139°40'0 0.0
2017-Sep-21 13:58N 35°23' E 139°40'0 0.0
2017-Sep-21 13:28N 35°23' E 139°40'0 0.0
2017-Sep-21 12:58N 35°23' E 139°40'0 0.0
2017-Sep-21 12:28N 35°23' E 139°40'0 0.0
2017-Sep-21 11:58N 35°23' E 139°40'0 0.0
2017-Sep-21 11:28N 35°23' E 139°40'0 0.0
2017-Sep-21 10:58N 35°23' E 139°40'0 0.0
2017-Sep-21 10:28N 35°23' E 139°40'0 0.0
2017-Sep-21 09:58N 35°23' E 139°40'0 0.1
2017-Sep-21 09:28N 35°23' E 139°40'0 0.0
2017-Sep-21 08:58N 35°23' E 139°40'0 0.0
2017-Sep-21 08:28N 35°23' E 139°40'0 0.0
2017-Sep-21 07:58N 35°23' E 139°40'0 0.0
2017-Sep-21 07:28N 35°23' E 139°40'0 0.1
2017-Sep-21 06:58N 35°23' E 139°40'0 0.0
2017-Sep-21 06:28N 35°23' E 139°40'0 0.0
2017-Sep-21 05:58N 35°23' E 139°40'0 0.0
2017-Sep-21 05:30N 35°23' E 139°40'1 1.9
2017-Sep-21 05:00N 35°23' E 139°41'2 3.8
2017-Sep-21 04:30N 35°22' E 139°43'4 7.5
2017-Sep-21 04:00N 35°19' E 139°44'4 7.2
2017-Sep-21 03:30N 35°16' E 139°46'3 6.5
2017-Sep-21 03:00N 35°13' E 139°47'3 6.2
2017-Sep-21 02:30N 35°09' E 139°46'3 6.2
2017-Sep-21 02:00N 35°07' E 139°44'3 6.1
2017-Sep-21 01:30N 35°05' E 139°42'3 6.2
2017-Sep-21 01:00N 35°02' E 139°40'3 6.4
2017-Sep-21 00:30N 34°59' E 139°38'3 7.0
2017-Sep-21 00:00N 34°58' E 139°34'  
2017-Sep-16 09:33N 35°03' E 138°34'  
2017-Sep-13 09:43N 34°48' E 139°07'2 6.5
2017-Sep-13 09:25N 34°50' E 139°08'20 5.8
2017-Sep-13 06:00N 35°03' E 139°26'4 5.9
2017-Sep-13 05:24N 35°04' E 139°30'3 6.1
2017-Sep-13 04:59N 35°05' E 139°33'3 6.6
2017-Sep-13 04:30N 35°06' E 139°37'3 6.8
2017-Sep-13 04:00N 35°07' E 139°41'3 5.4
2017-Sep-13 03:30N 35°08' E 139°43'3 6.3
2017-Sep-13 03:00N 35°11' E 139°45'4 7.2
2017-Sep-13 02:30N 35°14' E 139°46'3 6.4
2017-Sep-13 01:59N 35°17' E 139°44'3 6.7
2017-Sep-13 01:30N 35°20' E 139°42'2 4.3
2017-Sep-13 01:00N 35°19' E 139°40'0 0.1
2017-Sep-13 00:29N 35°19' E 139°40'0 0.0
2017-Sep-12 23:53N 35°19' E 139°40'0 0.0
2017-Sep-12 23:29N 35°19' E 139°40'0 0.0
2017-Sep-12 22:41N 35°19' E 139°40'0 0.0
2017-Sep-12 22:14N 35°19' E 139°40'0 0.0
2017-Sep-12 21:59N 35°19' E 139°40'0 0.0
2017-Sep-12 21:26N 35°19' E 139°40'0 0.0
2017-Sep-12 20:59N 35°19' E 139°40'0 0.0
2017-Sep-12 20:26N 35°19' E 139°40'0 0.0
2017-Sep-12 19:56N 35°19' E 139°40'0 0.0
2017-Sep-12 19:26N 35°19' E 139°40'0 0.0
2017-Sep-12 18:59N 35°19' E 139°40'0 0.0
2017-Sep-12 18:29N 35°19' E 139°40'0 0.0
2017-Sep-12 17:47N 35°19' E 139°40'0 0.0
2017-Sep-12 17:14N 35°19' E 139°40'0 0.0
2017-Sep-12 16:59N 35°19' E 139°40'0 0.0
2017-Sep-12 16:26N 35°19' E 139°40'0 0.0
2017-Sep-12 15:56N 35°19' E 139°40'0 0.0
2017-Sep-12 15:26N 35°19' E 139°40'0 0.0
2017-Sep-12 14:56N 35°19' E 139°40'0 0.0
2017-Sep-12 14:08N 35°19' E 139°40'0 0.0
2017-Sep-12 13:17N 35°19' E 139°40'0 0.0
2017-Sep-12 12:50N 35°19' E 139°40'0 0.0
2017-Sep-12 12:26N 35°19' E 139°40'0 0.0
2017-Sep-12 11:56N 35°19' E 139°40'0 0.0
2017-Sep-12 11:29N 35°19' E 139°40'0 0.1
2017-Sep-12 10:59N 35°19' E 139°40'0 0.0
2017-Sep-12 10:23N 35°19' E 139°40'0 0.5
2017-Sep-12 10:00N 35°19' E 139°41'2 4.1
2017-Sep-12 09:30N 35°21' E 139°42'3 5.7
2017-Sep-12 09:00N 35°23' E 139°42'3 5.2
2017-Sep-12 08:30N 35°26' E 139°42'3 6.1
2017-Sep-12 08:00N 35°28' E 139°39'0 0.9
2017-Sep-12 07:28N 35°28' E 139°38'0 0.0
2017-Sep-12 06:58N 35°28' E 139°38'0 0.0
2017-Sep-12 06:28N 35°28' E 139°38'0 0.0
2017-Sep-12 05:58N 35°28' E 139°38'0 0.0
2017-Sep-12 05:28N 35°28' E 139°38'0 0.0
2017-Sep-12 04:58N 35°28' E 139°38'0 0.0
2017-Sep-12 04:28N 35°28' E 139°38'0 0.0
2017-Sep-12 03:58N 35°28' E 139°38'0 0.0
2017-Sep-12 03:28N 35°28' E 139°38'0 0.0
2017-Sep-12 02:58N 35°28' E 139°38'0 0.0
2017-Sep-12 02:28N 35°28' E 139°38'0 0.0
2017-Sep-12 01:58N 35°28' E 139°38'  

Dump ship's entire track history